createdAt,value
2022-09-14T00:00:07.227Z,97058.22
2022-09-14T00:02:39.952Z,97062.75
2022-09-14T00:05:11.277Z,97059.38
2022-09-14T00:07:43.987Z,97056.03
2022-09-14T00:10:14.159Z,97055.63
2022-09-14T00:12:44.257Z,97052.28
2022-09-14T00:15:14.535Z,97056.25
2022-09-14T00:17:44.581Z,97052.69
2022-09-14T00:20:15.203Z,97039.97
2022-09-14T00:22:48.537Z,97032.09
2022-09-14T00:25:18.758Z,97030.38
2022-09-14T00:27:48.827Z,97027.56
2022-09-14T00:30:19.028Z,97034.13
2022-09-14T00:32:49.159Z,97021.22
2022-09-14T00:35:19.546Z,97019.69
2022-09-14T00:37:54.415Z,97014.09
2022-09-14T00:40:24.642Z,97010.94
2022-09-14T00:42:54.904Z,97006.28
2022-09-14T00:45:26.279Z,96999.84
2022-09-14T00:47:57.401Z,96999.66
2022-09-14T00:50:27.502Z,97000.94
2022-09-14T00:53:00.202Z,96989.72
2022-09-14T00:55:30.940Z,96985.97
2022-09-14T00:58:00.780Z,96980.16
2022-09-14T01:00:33.662Z,96980.69
2022-09-14T01:03:03.808Z,96979.94
2022-09-14T01:05:50.592Z,96973.59
2022-09-14T01:08:39.099Z,96972.06
2022-09-14T01:11:32.898Z,96975.44
2022-09-14T01:14:11.190Z,96964.75
2022-09-14T01:16:51.562Z,96963.25
2022-09-14T01:19:31.327Z,96965.84
2022-09-14T01:22:13.012Z,96970.91
2022-09-14T01:24:49.957Z,96958.94
2022-09-14T01:27:31.932Z,96954.22
2022-09-14T01:30:10.465Z,96945.59
2022-09-14T01:32:47.808Z,96937.53
2022-09-14T01:35:29.139Z,96942.59
2022-09-14T01:38:04.525Z,96955.53
2022-09-14T01:40:40.326Z,96952.53
2022-09-14T01:43:19.068Z,96946.16
2022-09-14T01:45:54.922Z,96940.00
2022-09-14T01:48:31.074Z,96944.13
2022-09-14T01:51:06.754Z,96946.91
2022-09-14T01:53:43.414Z,96944.13
2022-09-14T01:56:20.549Z,96945.94
2022-09-14T01:58:57.485Z,96943.34
2022-09-14T02:01:34.189Z,96956.28
2022-09-14T02:04:11.942Z,96958.84
2022-09-14T02:06:46.461Z,96959.22
2022-09-14T02:09:22.920Z,96957.84
2022-09-14T02:11:53.041Z,96956.00
2022-09-14T02:14:26.254Z,96952.09
2022-09-14T02:16:56.543Z,96952.09
2022-09-14T02:19:28.956Z,96951.78
2022-09-14T02:21:59.132Z,96951.03
2022-09-14T02:24:30.466Z,96954.75
2022-09-14T02:27:01.858Z,96945.41
2022-09-14T02:29:34.754Z,96944.31
2022-09-14T02:32:20.868Z,96938.16
2022-09-14T02:35:00.667Z,96940.97
2022-09-14T02:37:42.514Z,96943.22
2022-09-14T02:40:21.176Z,96944.16
2022-09-14T02:43:01.972Z,96941.03
2022-09-14T02:45:43.772Z,96947.03
2022-09-14T02:48:24.007Z,96942.94
2022-09-14T02:51:00.412Z,96942.94
2022-09-14T02:53:38.456Z,96940.16
2022-09-14T02:56:12.360Z,96930.63
2022-09-14T02:58:45.151Z,96931.72
2022-09-14T03:01:22.888Z,96936.38
2022-09-14T03:03:53.236Z,96941.22
2022-09-14T03:06:23.310Z,96932.81
2022-09-14T03:08:53.563Z,96931.91
2022-09-14T03:11:23.771Z,96934.72
2022-09-14T03:13:53.860Z,96926.13
2022-09-14T03:16:26.597Z,96924.25
2022-09-14T03:18:56.744Z,96928.38
2022-09-14T03:21:26.827Z,96930.22
2022-09-14T03:23:58.051Z,96935.06
2022-09-14T03:26:30.195Z,96926.44
2022-09-14T03:29:02.075Z,96923.25
2022-09-14T03:31:35.250Z,96918.19
2022-09-14T03:34:05.661Z,96915.72
2022-09-14T03:36:35.798Z,96908.38
2022-09-14T03:39:06.161Z,96902.06
2022-09-14T03:41:36.166Z,96896.22
2022-09-14T03:44:06.381Z,96896.03
2022-09-14T03:46:39.130Z,96893.03
2022-09-14T03:49:09.553Z,96899.72
2022-09-14T03:51:39.611Z,96884.00
2022-09-14T03:54:09.765Z,96886.59
2022-09-14T03:56:39.872Z,96883.38
2022-09-14T03:59:11.876Z,96877.56
2022-09-14T04:01:44.633Z,96874.75
2022-09-14T04:04:15.256Z,96865.59
2022-09-14T04:06:45.433Z,96864.63
2022-09-14T04:09:15.820Z,96873.78
2022-09-14T04:11:45.937Z,96868.94
2022-09-14T04:14:16.947Z,96857.72
2022-09-14T04:16:50.048Z,96865.81
2022-09-14T04:19:20.661Z,96863.56
2022-09-14T04:21:50.714Z,96866.34
2022-09-14T04:24:22.147Z,96865.59
2022-09-14T04:26:53.764Z,96870.13
2022-09-14T04:29:23.780Z,96878.53
2022-09-14T04:31:56.392Z,96871.41
2022-09-14T04:34:26.456Z,96873.88
2022-09-14T04:36:56.517Z,96877.44
2022-09-14T04:39:27.029Z,96872.19
2022-09-14T04:41:57.085Z,96870.66
2022-09-14T04:44:27.899Z,96874.97
2022-09-14T04:47:00.593Z,96876.06
2022-09-14T04:49:31.111Z,96879.63
2022-09-14T04:52:01.194Z,96881.13
2022-09-14T04:54:31.413Z,96880.38
2022-09-14T04:57:01.559Z,96881.13
2022-09-14T04:59:31.651Z,96867.88
2022-09-14T05:02:04.375Z,96870.84
2022-09-14T05:04:34.501Z,96867.72
2022-09-14T05:07:04.671Z,96866.44
2022-09-14T05:09:34.766Z,96870.19
2022-09-14T05:12:05.559Z,96860.47
2022-09-14T05:14:35.377Z,96865.84
2022-09-14T05:17:08.107Z,96854.66
2022-09-14T05:19:38.150Z,96863.63
2022-09-14T05:22:08.119Z,96860.59
2022-09-14T05:24:38.546Z,96860.59
2022-09-14T05:27:08.709Z,96851.66
2022-09-14T05:29:40.344Z,96863.63
2022-09-14T05:32:12.988Z,96864.16
2022-09-14T05:34:43.084Z,96856.69
2022-09-14T05:37:14.619Z,96858.97
2022-09-14T05:39:44.688Z,96852.28
2022-09-14T05:42:14.790Z,96856.78
2022-09-14T05:44:44.882Z,96857.88
2022-09-14T05:47:17.564Z,96857.31
2022-09-14T05:49:47.597Z,96858.28
2022-09-14T05:52:17.620Z,96860.72
2022-09-14T05:54:47.808Z,96861.69
2022-09-14T05:57:17.892Z,96860.41
2022-09-14T05:59:47.935Z,96863.94
2022-09-14T06:02:21.052Z,96860.78
2022-09-14T06:04:51.314Z,96860.78
2022-09-14T06:07:21.415Z,96859.91
2022-09-14T06:09:51.944Z,96856.94
2022-09-14T06:12:21.999Z,96850.78
2022-09-14T06:14:52.049Z,96846.91
2022-09-14T06:17:24.759Z,96852.50
2022-09-14T06:19:55.017Z,96849.88
2022-09-14T06:22:25.104Z,96846.38
2022-09-14T06:24:55.171Z,96842.69
2022-09-14T06:27:25.330Z,96846.47
2022-09-14T06:29:55.342Z,96837.34
2022-09-14T06:32:28.029Z,96830.41
2022-09-14T06:34:58.074Z,96835.69
2022-09-14T06:37:28.157Z,96829.50
2022-09-14T06:39:58.313Z,96821.69
2022-09-14T06:42:28.487Z,96828.25
2022-09-14T06:45:00.263Z,96823.75
2022-09-14T06:47:37.278Z,96828.25
2022-09-14T06:50:09.001Z,96825.44
2022-09-14T06:52:40.255Z,96826.97
2022-09-14T06:55:11.669Z,96819.63
2022-09-14T06:57:43.075Z,96822.66
2022-09-14T07:00:15.154Z,96823.75
2022-09-14T07:02:50.378Z,96826.56
2022-09-14T07:05:22.684Z,96829.75
2022-09-14T07:07:55.195Z,96826.97
2022-09-14T07:10:28.168Z,96832.78
2022-09-14T07:12:58.532Z,96827.00
2022-09-14T07:15:28.624Z,96832.63
2022-09-14T07:18:01.691Z,96828.13
2022-09-14T07:20:31.760Z,96828.91
2022-09-14T07:23:01.856Z,96833.59
2022-09-14T07:25:31.905Z,96831.53
2022-09-14T07:28:03.131Z,96831.88
2022-09-14T07:30:33.292Z,96830.03
2022-09-14T07:33:06.240Z,96832.84
2022-09-14T07:35:36.310Z,96835.44
2022-09-14T07:38:06.391Z,96832.78
2022-09-14T07:40:36.448Z,96837.88
2022-09-14T07:43:06.590Z,96841.06
2022-09-14T07:45:39.010Z,96836.16
2022-09-14T07:48:11.733Z,96838.94
2022-09-14T07:50:41.766Z,96838.41
2022-09-14T07:53:11.830Z,96835.25
2022-09-14T07:55:42.132Z,96841.47
2022-09-14T07:58:12.162Z,96842.22
2022-09-14T08:00:42.193Z,96832.13
2022-09-14T08:03:15.284Z,96839.63
2022-09-14T08:05:45.313Z,96839.97
2022-09-14T08:08:15.379Z,96838.44
2022-09-14T08:10:45.413Z,96833.75
2022-09-14T08:13:16.666Z,96840.44
2022-09-14T08:15:46.640Z,96842.28
2022-09-14T08:18:19.199Z,96844.00
2022-09-14T08:20:49.633Z,96839.31
2022-09-14T08:23:19.678Z,96838.25
2022-09-14T08:25:49.810Z,96832.13
2022-09-14T08:28:19.897Z,96830.28
2022-09-14T08:30:50.072Z,96831.78
2022-09-14T08:33:22.826Z,96825.59
2022-09-14T08:36:00.100Z,96830.66
2022-09-14T08:38:30.634Z,96825.47
2022-09-14T08:41:12.757Z,96822.25
2022-09-14T08:43:42.813Z,96825.25
2022-09-14T08:46:30.218Z,96820.44
2022-09-14T08:49:04.606Z,96822.09
2022-09-14T08:51:34.691Z,96824.00
2022-09-14T08:54:04.835Z,96818.63
2022-09-14T08:56:36.923Z,96816.88
2022-09-14T08:59:41.226Z,96824.19
2022-09-14T09:02:39.114Z,96819.50
2022-09-14T09:05:29.008Z,96825.47
2022-09-14T09:08:07.169Z,96816.63
2022-09-14T09:10:40.878Z,96812.75
2022-09-14T09:13:18.985Z,96806.22
2022-09-14T09:15:53.029Z,96810.41
2022-09-14T09:18:42.861Z,96808.72
2022-09-14T09:21:20.017Z,96811.16
2022-09-14T09:23:50.257Z,96814.56
2022-09-14T09:26:29.030Z,96811.16
2022-09-14T09:29:03.094Z,96815.13
2022-09-14T09:31:56.540Z,96809.84
2022-09-14T09:34:56.137Z,96807.03
2022-09-14T09:37:43.138Z,96800.25
2022-09-14T09:40:22.985Z,96808.34
2022-09-14T09:43:11.579Z,96809.25
2022-09-14T09:45:58.936Z,96805.53
2022-09-14T09:48:34.906Z,96802.53
2022-09-14T09:51:12.721Z,96798.59
2022-09-14T09:53:52.638Z,96794.28
2022-09-14T09:56:26.448Z,96794.09
2022-09-14T09:58:56.764Z,96791.13
2022-09-14T10:01:32.574Z,96798.63
2022-09-14T10:04:28.941Z,96787.75
2022-09-14T10:06:59.920Z,96802.53
2022-09-14T10:09:32.765Z,96796.53
2022-09-14T10:12:06.156Z,96794.81
2022-09-14T10:14:40.572Z,96794.47
2022-09-14T10:17:20.345Z,96798.59
2022-09-14T10:19:52.395Z,96800.00
2022-09-14T10:22:29.940Z,96796.78
2022-09-14T10:25:05.820Z,96799.09
2022-09-14T10:27:42.297Z,96793.28
2022-09-14T10:30:18.977Z,96802.88
2022-09-14T10:32:59.296Z,96808.81
2022-09-14T10:35:45.998Z,96811.97
2022-09-14T10:38:33.030Z,96805.56
2022-09-14T10:41:26.302Z,96800.53
2022-09-14T10:44:30.179Z,96805.34
2022-09-14T10:47:32.958Z,96802.75
2022-09-14T10:50:26.098Z,96801.25
2022-09-14T10:53:09.589Z,96787.78
2022-09-14T10:55:49.950Z,96782.16
2022-09-14T10:58:37.500Z,96778.25
2022-09-14T11:01:27.431Z,96778.34
2022-09-14T11:04:08.926Z,96789.78
2022-09-14T11:06:56.802Z,96789.59
2022-09-14T11:09:33.187Z,96788.47
2022-09-14T11:12:12.680Z,96792.38
2022-09-14T11:15:08.410Z,96786.00
2022-09-14T11:17:58.263Z,96782.56
2022-09-14T11:20:41.923Z,96779.41
2022-09-14T11:23:29.387Z,96779.59
2022-09-14T11:26:03.924Z,96773.06
2022-09-14T11:28:41.137Z,96777.53
2022-09-14T11:31:21.433Z,96766.31
2022-09-14T11:34:00.321Z,96772.09
2022-09-14T11:36:36.469Z,96778.06
2022-09-14T11:39:20.501Z,96773.16
2022-09-14T11:41:56.215Z,96770.94
2022-09-14T11:44:32.952Z,96771.44
2022-09-14T11:47:12.935Z,96763.44
2022-09-14T11:49:58.376Z,96747.53
2022-09-14T11:52:31.283Z,96744.00
2022-09-14T11:55:03.899Z,96750.38
2022-09-14T11:57:36.441Z,96744.59
2022-09-14T12:00:12.475Z,96749.06
2022-09-14T12:03:04.599Z,96749.88
2022-09-14T12:05:38.979Z,96744.28
2022-09-14T12:08:42.239Z,96742.19
2022-09-14T12:11:36.116Z,96741.47
2022-09-14T12:14:40.729Z,96735.66
2022-09-14T12:17:41.253Z,96742.59
2022-09-14T12:20:41.988Z,96734.53
2022-09-14T12:23:28.149Z,96744.63
2022-09-14T12:26:08.478Z,96732.28
2022-09-14T12:28:50.782Z,96744.47
2022-09-14T12:32:23.656Z,96738.44
2022-09-14T12:35:48.719Z,96729.81
2022-09-14T12:38:45.060Z,96738.59
2022-09-14T12:42:00.980Z,96738.22
2022-09-14T12:44:41.097Z,96717.41
2022-09-14T12:47:55.063Z,96713.31
2022-09-14T12:50:25.637Z,96711.84
2022-09-14T12:53:22.219Z,96722.00
2022-09-14T12:56:05.967Z,96717.84
2022-09-14T12:59:04.181Z,96715.22
2022-09-14T13:01:46.823Z,96702.47
2022-09-14T13:04:27.944Z,96704.16
2022-09-14T13:07:00.904Z,96706.19
2022-09-14T13:09:35.359Z,96712.16
2022-09-14T13:12:08.544Z,96706.53
2022-09-14T13:14:49.861Z,96698.84
2022-09-14T13:17:20.472Z,96693.56
2022-09-14T13:19:57.018Z,96688.75
2022-09-14T13:22:31.942Z,96688.22
2022-09-14T13:25:04.912Z,96680.50
2022-09-14T13:27:38.083Z,96674.56
2022-09-14T13:30:22.018Z,96674.16
2022-09-14T13:32:56.182Z,96662.69
2022-09-14T13:35:33.530Z,96658.25
2022-09-14T13:38:10.870Z,96657.03
2022-09-14T13:40:43.666Z,96660.56
2022-09-14T13:43:14.368Z,96665.88
2022-09-14T13:45:44.326Z,96659.06
2022-09-14T13:48:18.209Z,96662.50
2022-09-14T13:50:52.033Z,96668.41
2022-09-14T13:53:45.756Z,96663.06
2022-09-14T13:56:31.558Z,96661.41
2022-09-14T13:59:22.604Z,96662.19
2022-09-14T14:02:03.369Z,96662.81
2022-09-14T14:04:37.273Z,96666.78
2022-09-14T14:07:24.054Z,96657.22
2022-09-14T14:09:57.501Z,96665.84
2022-09-14T14:12:32.814Z,96663.84
2022-09-14T14:15:06.310Z,96669.31
2022-09-14T14:17:41.395Z,96673.25
2022-09-14T14:20:35.658Z,96671.75
2022-09-14T14:23:23.206Z,96666.16
2022-09-14T14:25:55.586Z,96662.75
2022-09-14T14:28:32.601Z,96665.38
2022-09-14T14:31:08.843Z,96656.38
2022-09-14T14:33:46.533Z,96651.31
2022-09-14T14:36:17.663Z,96661.25
2022-09-14T14:38:48.606Z,96655.66
2022-09-14T14:41:22.570Z,96653.19
2022-09-14T14:43:55.534Z,96652.28
2022-09-14T14:46:25.634Z,96659.41
2022-09-14T14:48:55.739Z,96653.41
2022-09-14T14:51:25.834Z,96648.91
2022-09-14T14:53:56.282Z,96651.91
2022-09-14T14:56:26.318Z,96649.09
2022-09-14T14:59:02.190Z,96646.28
2022-09-14T15:01:32.993Z,96640.84
2022-09-14T15:04:03.190Z,96647.59
2022-09-14T15:06:33.535Z,96649.28
2022-09-14T15:09:06.363Z,96650.97
2022-09-14T15:11:38.413Z,96646.66
2022-09-14T15:14:14.376Z,96642.53
2022-09-14T15:16:46.013Z,96636.19
2022-09-14T15:19:16.719Z,96627.34
2022-09-14T15:21:46.815Z,96635.22
2022-09-14T15:24:16.929Z,96633.94
2022-09-14T15:26:47.049Z,96625.88
2022-09-14T15:29:20.440Z,96624.19
2022-09-14T15:31:50.543Z,96632.81
2022-09-14T15:34:20.742Z,96631.50
2022-09-14T15:36:53.152Z,96631.31
2022-09-14T15:39:25.629Z,96634.47
2022-09-14T15:41:56.626Z,96627.75
2022-09-14T15:44:30.997Z,96632.06
2022-09-14T15:47:01.490Z,96626.03
2022-09-14T15:49:31.656Z,96622.69
2022-09-14T15:52:01.844Z,96624.16
2022-09-14T15:54:37.260Z,96616.47
2022-09-14T15:57:11.093Z,96614.41
2022-09-14T15:59:43.749Z,96601.66
2022-09-14T16:02:14.794Z,96603.75
2022-09-14T16:04:44.932Z,96600.94
2022-09-14T16:07:15.522Z,96614.25
2022-09-14T16:09:45.996Z,96610.13
2022-09-14T16:12:16.809Z,96609.75
2022-09-14T16:14:49.967Z,96603.56
2022-09-14T16:17:20.074Z,96603.75
2022-09-14T16:19:52.029Z,96593.28
2022-09-14T16:22:22.216Z,96588.41
2022-09-14T16:24:52.476Z,96588.22
2022-09-14T16:27:22.622Z,96587.47
2022-09-14T16:29:55.406Z,96592.72
2022-09-14T16:32:25.577Z,96579.78
2022-09-14T16:34:55.939Z,96569.50
2022-09-14T16:37:25.974Z,96574.75
2022-09-14T16:39:56.101Z,96583.53
2022-09-14T16:42:26.380Z,96576.25
2022-09-14T16:44:59.068Z,96566.53
2022-09-14T16:47:29.291Z,96565.78
2022-09-14T16:49:59.419Z,96567.84
2022-09-14T16:52:29.888Z,96573.22
2022-09-14T16:55:00.104Z,96572.66
2022-09-14T16:57:30.191Z,96566.09
2022-09-14T17:00:03.451Z,96559.56
2022-09-14T17:02:33.620Z,96557.13
2022-09-14T17:05:03.861Z,96561.81
2022-09-14T17:07:33.968Z,96560.53
2022-09-14T17:10:04.143Z,96560.13
2022-09-14T17:12:34.243Z,96553.41
2022-09-14T17:15:07.858Z,96556.97
2022-09-14T17:17:37.953Z,96550.59
2022-09-14T17:20:10.284Z,96544.06
2022-09-14T17:22:40.338Z,96544.78
2022-09-14T17:25:16.721Z,96534.69
2022-09-14T17:27:46.992Z,96523.47
2022-09-14T17:30:20.138Z,96521.56
2022-09-14T17:32:50.198Z,96521.94
2022-09-14T17:35:20.284Z,96517.09
2022-09-14T17:37:50.369Z,96521.38
2022-09-14T17:40:20.768Z,96517.44
2022-09-14T17:42:50.881Z,96514.84
2022-09-14T17:45:23.716Z,96508.47
2022-09-14T17:47:53.796Z,96515.38
2022-09-14T17:50:24.008Z,96509.97
2022-09-14T17:52:54.388Z,96520.84
2022-09-14T17:55:24.524Z,96510.72
2022-09-14T17:57:54.699Z,96516.13
2022-09-14T18:00:27.511Z,96512.78
2022-09-14T18:02:57.850Z,96512.03
2022-09-14T18:05:28.334Z,96506.59
2022-09-14T18:07:58.410Z,96512.94
2022-09-14T18:10:28.580Z,96513.53
2022-09-14T18:12:58.707Z,96503.59
2022-09-14T18:15:35.927Z,96507.16
2022-09-14T18:18:08.506Z,96513.72
2022-09-14T18:20:40.330Z,96513.91
2022-09-14T18:23:10.479Z,96503.25
2022-09-14T18:25:43.522Z,96493.13
2022-09-14T18:28:13.628Z,96492.38
2022-09-14T18:30:46.318Z,96487.16
2022-09-14T18:33:17.279Z,96475.75
2022-09-14T18:35:47.324Z,96474.44
2022-09-14T18:38:17.402Z,96486.97
2022-09-14T18:40:47.459Z,96475.16
2022-09-14T18:43:19.010Z,96472.19
2022-09-14T18:45:53.323Z,96472.19
2022-09-14T18:48:23.422Z,96470.50
2022-09-14T18:50:53.641Z,96471.44
2022-09-14T18:53:23.812Z,96468.28
2022-09-14T18:55:53.917Z,96461.72
2022-09-14T18:58:24.057Z,96454.25
2022-09-14T19:00:56.779Z,96454.25
2022-09-14T19:03:26.876Z,96454.97
2022-09-14T19:05:56.922Z,96455.34
2022-09-14T19:08:27.257Z,96457.06
2022-09-14T19:10:57.451Z,96463.59
2022-09-14T19:13:27.603Z,96460.25
2022-09-14T19:16:00.285Z,96459.69
2022-09-14T19:18:30.436Z,96475.56
2022-09-14T19:21:06.802Z,96479.31
2022-09-14T19:23:37.825Z,96471.84
2022-09-14T19:26:08.830Z,96466.41
2022-09-14T19:28:39.757Z,96458.00
2022-09-14T19:31:15.245Z,96446.97
2022-09-14T19:33:46.397Z,96464.34
2022-09-14T19:36:20.240Z,96478.72
2022-09-14T19:38:51.551Z,96475.34
2022-09-14T19:41:23.184Z,96464.28
2022-09-14T19:43:53.354Z,96445.22
2022-09-14T19:46:26.452Z,96438.31
2022-09-14T19:48:57.146Z,96436.22
2022-09-14T19:51:32.432Z,96455.84
2022-09-14T19:54:03.530Z,96464.25
2022-09-14T19:56:34.971Z,96472.34
2022-09-14T19:59:07.373Z,96477.94
2022-09-14T20:01:42.039Z,96471.00
2022-09-14T20:04:13.306Z,96456.06
2022-09-14T20:06:47.248Z,96460.53
2022-09-14T20:09:20.446Z,96462.78
2022-09-14T20:11:53.196Z,96486.13
2022-09-14T20:14:25.954Z,96485.38
2022-09-14T20:17:01.546Z,96488.19
2022-09-14T20:19:35.809Z,96491.34
2022-09-14T20:22:05.906Z,96489.84
2022-09-14T20:24:36.016Z,96506.47
2022-09-14T20:27:06.373Z,96497.13
2022-09-14T20:29:37.415Z,96508.16
2022-09-14T20:32:10.180Z,96527.72
2022-09-14T20:34:40.293Z,96538.66
2022-09-14T20:37:10.373Z,96548.94
2022-09-14T20:39:41.094Z,96543.72
2022-09-14T20:42:11.164Z,96535.53
2022-09-14T20:44:41.352Z,96524.72
2022-09-14T20:47:14.127Z,96522.09
2022-09-14T20:49:44.998Z,96522.28
2022-09-14T20:52:15.785Z,96522.16
2022-09-14T20:54:45.968Z,96531.66
2022-09-14T20:57:16.011Z,96537.59
2022-09-14T20:59:46.032Z,96527.66
2022-09-14T21:02:18.715Z,96533.88
2022-09-14T21:04:49.074Z,96545.19
2022-09-14T21:07:19.187Z,96547.53
2022-09-14T21:09:49.538Z,96532.38
2022-09-14T21:12:19.753Z,96548.78
2022-09-14T21:14:50.142Z,96552.78
2022-09-14T21:17:22.981Z,96531.28
2022-09-14T21:19:53.074Z,96515.84
2022-09-14T21:22:23.209Z,96521.50
2022-09-14T21:24:53.407Z,96539.38
2022-09-14T21:27:23.561Z,96545.72
2022-09-14T21:29:53.729Z,96537.47
2022-09-14T21:32:26.548Z,96532.47
2022-09-14T21:34:56.678Z,96535.84
2022-09-14T21:37:27.956Z,96546.78
2022-09-14T21:39:58.394Z,96543.06
2022-09-14T21:42:28.665Z,96548.69
2022-09-14T21:44:59.536Z,96547.59
2022-09-14T21:47:32.303Z,96558.59
2022-09-14T21:50:02.443Z,96561.59
2022-09-14T21:52:32.638Z,96564.41
2022-09-14T21:55:02.860Z,96571.28
2022-09-14T21:57:32.989Z,96580.38
2022-09-14T22:00:03.213Z,96582.13
2022-09-14T22:02:39.503Z,96573.03
2022-09-14T22:05:10.651Z,96579.38
2022-09-14T22:07:42.446Z,96579.16
2022-09-14T22:10:13.305Z,96568.19
2022-09-14T22:12:44.549Z,96577.88
2022-09-14T22:15:16.078Z,96579.84
2022-09-14T22:17:48.987Z,96583.97
2022-09-14T22:20:19.579Z,96585.88
2022-09-14T22:22:49.774Z,96585.28
2022-09-14T22:25:21.093Z,96591.34
2022-09-14T22:27:51.411Z,96597.81
2022-09-14T22:30:21.775Z,96593.53
2022-09-14T22:32:54.561Z,96591.16
2022-09-14T22:35:24.707Z,96589.09
2022-09-14T22:37:55.141Z,96605.47
2022-09-14T22:40:28.574Z,96604.97
2022-09-14T22:42:58.808Z,96609.28
2022-09-14T22:45:28.989Z,96612.09
2022-09-14T22:48:01.861Z,96612.09
2022-09-14T22:50:31.937Z,96609.06
2022-09-14T22:53:02.100Z,96612.31
2022-09-14T22:55:32.352Z,96606.03
2022-09-14T22:58:02.396Z,96607.09
2022-09-14T23:00:32.679Z,96606.50
2022-09-14T23:03:05.796Z,96606.50
2022-09-14T23:05:36.692Z,96609.41
2022-09-14T23:08:08.150Z,96614.38
2022-09-14T23:10:40.568Z,96617.91
2022-09-14T23:13:10.727Z,96616.19
2022-09-14T23:15:42.039Z,96624.84
2022-09-14T23:18:15.651Z,96637.13
2022-09-14T23:20:47.700Z,96641.34
2022-09-14T23:23:17.816Z,96638.31
2022-09-14T23:25:47.843Z,96632.53
2022-09-14T23:28:18.018Z,96621.97
2022-09-14T23:30:55.498Z,96629.63
2022-09-14T23:33:28.892Z,96626.50
2022-09-14T23:35:59.028Z,96615.00
2022-09-14T23:38:29.574Z,96628.09
2022-09-14T23:41:00.521Z,96631.66
2022-09-14T23:43:30.606Z,96632.19
2022-09-14T23:46:00.710Z,96635.88
2022-09-14T23:48:33.498Z,96634.34
2022-09-14T23:51:07.015Z,96634.25
2022-09-14T23:53:38.004Z,96642.66
2022-09-14T23:56:09.266Z,96634.59
2022-09-14T23:58:41.510Z,96647.06
